sensor_id;sensor_type;location;lat;lon;timestamp;pressure;altitude;pressure_sealevel;temperature;humidity
7940;BME280;4015;48.888;9.226;2022-07-23T00:02:14;161421.47;;;24.56;66.82
7940;BME280;4015;48.888;9.226;2022-07-23T00:04:40;161420.19;;;24.55;65.64
7940;BME280;4015;48.888;9.226;2022-07-23T00:07:05;161420.19;;;24.55;64.64
7940;BME280;4015;48.888;9.226;2022-07-23T00:09:30;161454.94;;;24.69;61.99
7940;BME280;4015;48.888;9.226;2022-07-23T00:11:56;161444.66;;;24.65;62.79
7940;BME280;4015;48.888;9.226;2022-07-23T00:14:22;161454.94;;;24.69;61.83
7940;BME280;4015;48.888;9.226;2022-07-23T00:16:47;161458.84;;;24.70;61.50
7940;BME280;4015;48.888;9.226;2022-07-23T00:19:12;161471.66;;;24.75;61.16
7940;BME280;4015;48.888;9.226;2022-07-23T00:21:38;161478.13;;;24.78;60.84
7940;BME280;4015;48.888;9.226;2022-07-23T00:24:03;161479.41;;;24.79;60.77
7940;BME280;4015;48.888;9.226;2022-07-23T00:26:29;161484.56;;;24.81;60.59
7940;BME280;4015;48.888;9.226;2022-07-23T00:28:54;161472.94;;;24.76;60.53
7940;BME280;4015;48.888;9.226;2022-07-23T00:31:20;161485.84;;;24.81;60.74
7940;BME280;4015;48.888;9.226;2022-07-23T00:33:45;161498.72;;;24.86;60.52
7940;BME280;4015;48.888;9.226;2022-07-23T00:36:11;161489.69;;;24.83;60.41
7940;BME280;4015;48.888;9.226;2022-07-23T00:38:36;161471.66;;;24.75;60.63
7940;BME280;4015;48.888;9.226;2022-07-23T00:41:01;161485.84;;;24.81;60.52
7940;BME280;4015;48.888;9.226;2022-07-23T00:43:27;161479.41;;;24.79;60.05
7940;BME280;4015;48.888;9.226;2022-07-23T00:45:52;161460.13;;;24.71;60.76
7940;BME280;4015;48.888;9.226;2022-07-23T00:48:17;161461.41;;;24.71;61.31
7940;BME280;4015;48.888;9.226;2022-07-23T00:50:43;161463.97;;;24.72;61.56
7940;BME280;4015;48.888;9.226;2022-07-23T00:53:09;161469.09;;;24.74;60.83
7940;BME280;4015;48.888;9.226;2022-07-23T00:55:35;161451.09;;;24.67;61.56
7940;BME280;4015;48.888;9.226;2022-07-23T00:58:01;161417.63;;;24.54;62.07
7940;BME280;4015;48.888;9.226;2022-07-23T01:00:27;161398.31;;;24.46;62.98
7940;BME280;4015;48.888;9.226;2022-07-23T01:02:53;161398.31;;;24.46;62.34
7940;BME280;4015;48.888;9.226;2022-07-23T01:05:18;161391.84;;;24.44;62.69
7940;BME280;4015;48.888;9.226;2022-07-23T01:07:48;161363.50;;;24.33;62.73
7940;BME280;4015;48.888;9.226;2022-07-23T01:10:13;161342.88;;;24.25;63.79
7940;BME280;4015;48.888;9.226;2022-07-23T01:12:58;161341.59;;;24.24;62.60
7940;BME280;4015;48.888;9.226;2022-07-23T01:15:24;161346.72;;;24.26;62.54
7940;BME280;4015;48.888;9.226;2022-07-23T01:17:50;161363.50;;;24.33;61.96
7940;BME280;4015;48.888;9.226;2022-07-23T01:20:16;161366.13;;;24.34;62.11
7940;BME280;4015;48.888;9.226;2022-07-23T01:22:41;161380.28;;;24.39;61.51
7940;BME280;4015;48.888;9.226;2022-07-23T01:25:07;161381.56;;;24.40;61.84
7940;BME280;4015;48.888;9.226;2022-07-23T01:27:33;161354.47;;;24.29;63.15
7940;BME280;4015;48.888;9.226;2022-07-23T01:30:00;161335.16;;;24.21;63.46
7940;BME280;4015;48.888;9.226;2022-07-23T01:32:26;161335.16;;;24.21;63.87
7940;BME280;4015;48.888;9.226;2022-07-23T01:34:51;161348.06;;;24.27;63.22
7940;BME280;4015;48.888;9.226;2022-07-23T01:37:17;161333.88;;;24.21;63.26
7940;BME280;4015;48.888;9.226;2022-07-23T01:39:42;161335.16;;;24.21;64.41
7940;BME280;4015;48.888;9.226;2022-07-23T01:42:07;161297.81;;;24.07;64.79
7940;BME280;4015;48.888;9.226;2022-07-23T01:44:33;161254.09;;;23.89;66.22
7940;BME280;4015;48.888;9.226;2022-07-23T01:46:58;161250.19;;;23.88;66.18
7940;BME280;4015;48.888;9.226;2022-07-23T01:49:24;161233.47;;;23.81;65.99
7940;BME280;4015;48.888;9.226;2022-07-23T01:51:49;161234.75;;;23.82;64.96
7940;BME280;4015;48.888;9.226;2022-07-23T01:54:28;161223.19;;;23.77;65.99
7940;BME280;4015;48.888;9.226;2022-07-23T01:56:54;161197.44;;;23.67;67.91
7940;BME280;4015;48.888;9.226;2022-07-23T01:59:21;161175.53;;;23.58;67.45
7940;BME280;4015;48.888;9.226;2022-07-23T02:01:46;161115.03;;;23.34;68.57
7940;BME280;4015;48.888;9.226;2022-07-23T02:04:12;161106.00;;;23.31;69.65
7940;BME280;4015;48.888;9.226;2022-07-23T02:06:37;161088.00;;;23.24;69.99
7940;BME280;4015;48.888;9.226;2022-07-23T02:09:03;161086.72;;;23.23;70.71
7940;BME280;4015;48.888;9.226;2022-07-23T02:11:28;161068.69;;;23.16;70.66
7940;BME280;4015;48.888;9.226;2022-07-23T02:13:53;161030.13;;;23.01;71.50
7940;BME280;4015;48.888;9.226;2022-07-23T02:16:19;161018.53;;;22.96;70.85
7940;BME280;4015;48.888;9.226;2022-07-23T02:18:44;160986.31;;;22.83;70.41
7940;BME280;4015;48.888;9.226;2022-07-23T02:21:11;160997.97;;;22.88;71.01
7940;BME280;4015;48.888;9.226;2022-07-23T02:23:36;160949.00;;;22.69;73.37
7940;BME280;4015;48.888;9.226;2022-07-23T02:26:01;160906.56;;;22.52;72.11
7940;BME280;4015;48.888;9.226;2022-07-23T02:28:27;160901.41;;;22.50;72.03
7940;BME280;4015;48.888;9.226;2022-07-23T02:30:52;160897.56;;;22.48;72.87
7940;BME280;4015;48.888;9.226;2022-07-23T02:33:18;160909.13;;;22.53;72.52
7940;BME280;4015;48.888;9.226;2022-07-23T02:35:43;160906.56;;;22.52;72.49
7940;BME280;4015;48.888;9.226;2022-07-23T02:38:08;160923.28;;;22.58;71.40
7940;BME280;4015;48.888;9.226;2022-07-23T02:40:34;160883.41;;;22.43;73.01
7940;BME280;4015;48.888;9.226;2022-07-23T02:42:59;160862.84;;;22.34;73.61
7940;BME280;4015;48.888;9.226;2022-07-23T02:45:24;160817.81;;;22.17;73.81
7940;BME280;4015;48.888;9.226;2022-07-23T02:47:50;160804.94;;;22.12;74.19
7940;BME280;4015;48.888;9.226;2022-07-23T02:50:15;160810.13;;;22.14;73.17
7940;BME280;4015;48.888;9.226;2022-07-23T02:52:41;160792.06;;;22.06;73.73
7940;BME280;4015;48.888;9.226;2022-07-23T02:55:06;160804.94;;;22.12;73.58
7940;BME280;4015;48.888;9.226;2022-07-23T02:57:32;160798.53;;;22.09;73.41
7940;BME280;4015;48.888;9.226;2022-07-23T02:59:57;160794.63;;;22.07;73.58
7940;BME280;4015;48.888;9.226;2022-07-23T03:02:23;160816.53;;;22.16;73.02
7940;BME280;4015;48.888;9.226;2022-07-23T03:04:49;160821.66;;;22.18;73.36
7940;BME280;4015;48.888;9.226;2022-07-23T03:07:15;160834.53;;;22.23;72.62
7940;BME280;4015;48.888;9.226;2022-07-23T03:09:41;160840.97;;;22.26;72.53
7940;BME280;4015;48.888;9.226;2022-07-23T03:12:06;160843.56;;;22.27;72.59
7940;BME280;4015;48.888;9.226;2022-07-23T03:14:32;160853.81;;;22.31;72.42
7940;BME280;4015;48.888;9.226;2022-07-23T03:16:57;160865.41;;;22.35;71.77
7940;BME280;4015;48.888;9.226;2022-07-23T03:19:25;160830.69;;;22.22;73.25
7940;BME280;4015;48.888;9.226;2022-07-23T03:21:50;160821.66;;;22.18;74.18
7940;BME280;4015;48.888;9.226;2022-07-23T03:24:15;160810.13;;;22.14;73.64
7940;BME280;4015;48.888;9.226;2022-07-23T03:26:43;160788.19;;;22.05;73.88
7940;BME280;4015;48.888;9.226;2022-07-23T03:29:08;160784.34;;;22.03;73.89
7940;BME280;4015;48.888;9.226;2022-07-23T03:31:33;160810.13;;;22.14;73.48
7940;BME280;4015;48.888;9.226;2022-07-23T03:33:59;160810.13;;;22.14;73.69
7940;BME280;4015;48.888;9.226;2022-07-23T03:36:25;160801.09;;;22.10;73.94
7940;BME280;4015;48.888;9.226;2022-07-23T03:38:51;160786.91;;;22.04;74.83
7940;BME280;4015;48.888;9.226;2022-07-23T03:41:17;160765.06;;;21.96;74.87
7940;BME280;4015;48.888;9.226;2022-07-23T03:43:43;160763.78;;;21.95;75.20
7940;BME280;4015;48.888;9.226;2022-07-23T03:46:08;160768.91;;;21.97;74.50
7940;BME280;4015;48.888;9.226;2022-07-23T03:48:34;160779.22;;;22.01;74.29
7940;BME280;4015;48.888;9.226;2022-07-23T03:51:00;160759.94;;;21.94;75.43
7940;BME280;4015;48.888;9.226;2022-07-23T03:53:25;160783.06;;;22.03;74.33
7940;BME280;4015;48.888;9.226;2022-07-23T03:55:50;160790.75;;;22.06;74.50
7940;BME280;4015;48.888;9.226;2022-07-23T03:58:16;160779.22;;;22.01;75.23
7940;BME280;4015;48.888;9.226;2022-07-23T04:00:41;160757.31;;;21.93;75.17
7940;BME280;4015;48.888;9.226;2022-07-23T04:03:06;160754.75;;;21.92;75.13
7940;BME280;4015;48.888;9.226;2022-07-23T04:05:32;160790.75;;;22.06;74.06
7940;BME280;4015;48.888;9.226;2022-07-23T04:07:57;160811.41;;;22.14;73.65
7940;BME280;4015;48.888;9.226;2022-07-23T04:10:22;160763.78;;;21.95;75.27
7940;BME280;4015;48.888;9.226;2022-07-23T04:12:48;160752.19;;;21.91;76.44
7940;BME280;4015;48.888;9.226;2022-07-23T04:15:13;160749.63;;;21.90;76.11
7940;BME280;4015;48.888;9.226;2022-07-23T04:17:39;160756.03;;;21.92;75.73
7940;BME280;4015;48.888;9.226;2022-07-23T04:20:05;160783.06;;;22.03;75.32
7940;BME280;4015;48.888;9.226;2022-07-23T04:22:30;160803.66;;;22.11;75.74
7940;BME280;4015;48.888;9.226;2022-07-23T04:24:55;160824.28;;;22.19;74.55
7940;BME280;4015;48.888;9.226;2022-07-23T04:27:21;160843.56;;;22.27;74.34
7940;BME280;4015;48.888;9.226;2022-07-23T04:29:46;160865.41;;;22.35;74.15
7940;BME280;4015;48.888;9.226;2022-07-23T04:32:11;160867.97;;;22.37;73.85
7940;BME280;4015;48.888;9.226;2022-07-23T04:34:37;160864.13;;;22.35;73.67
7940;BME280;4015;48.888;9.226;2022-07-23T04:37:02;160879.56;;;22.41;73.27
7940;BME280;4015;48.888;9.226;2022-07-23T04:39:27;160893.72;;;22.47;72.73
7940;BME280;4015;48.888;9.226;2022-07-23T04:41:53;160882.13;;;22.42;72.58
7940;BME280;4015;48.888;9.226;2022-07-23T04:44:18;160905.28;;;22.51;73.31
7940;BME280;4015;48.888;9.226;2022-07-23T04:46:43;160942.56;;;22.66;72.35
7940;BME280;4015;48.888;9.226;2022-07-23T04:49:09;160947.72;;;22.68;72.32
7940;BME280;4015;48.888;9.226;2022-07-23T04:51:34;160976.03;;;22.79;71.94
7940;BME280;4015;48.888;9.226;2022-07-23T04:54:00;161023.66;;;22.98;71.15
7940;BME280;4015;48.888;9.226;2022-07-23T04:56:25;161051.97;;;23.09;70.82
7940;BME280;4015;48.888;9.226;2022-07-23T04:58:50;161086.72;;;23.23;70.39
7940;BME280;4015;48.888;9.226;2022-07-23T05:01:16;161126.63;;;23.39;70.43
7940;BME280;4015;48.888;9.226;2022-07-23T05:03:41;161125.34;;;23.38;70.29
7940;BME280;4015;48.888;9.226;2022-07-23T05:06:06;161139.44;;;23.44;70.01
7940;BME280;4015;48.888;9.226;2022-07-23T05:08:32;161086.72;;;23.23;71.28
7940;BME280;4015;48.888;9.226;2022-07-23T05:10:57;161058.41;;;23.12;71.33
7940;BME280;4015;48.888;9.226;2022-07-23T05:13:23;161048.13;;;23.08;71.78
7940;BME280;4015;48.888;9.226;2022-07-23T05:15:48;161060.97;;;23.13;72.16
7940;BME280;4015;48.888;9.226;2022-07-23T05:18:13;161103.44;;;23.30;71.47
7940;BME280;4015;48.888;9.226;2022-07-23T05:20:39;161165.22;;;23.54;71.57
7940;BME280;4015;48.888;9.226;2022-07-23T05:23:06;161227.03;;;23.79;70.90
7940;BME280;4015;48.888;9.226;2022-07-23T05:25:32;161309.41;;;24.11;70.58
7940;BME280;4015;48.888;9.226;2022-07-23T05:27:57;161402.16;;;24.48;68.70
7940;BME280;4015;48.888;9.226;2022-07-23T05:30:22;161476.84;;;24.78;67.54
7940;BME280;4015;48.888;9.226;2022-07-23T05:32:48;161456.22;;;24.69;67.66
7940;BME280;4015;48.888;9.226;2022-07-23T05:35:13;161427.94;;;24.58;69.28
7940;BME280;4015;48.888;9.226;2022-07-23T05:37:39;161422.75;;;24.56;71.73
7940;BME280;4015;48.888;9.226;2022-07-23T05:40:06;161413.75;;;24.53;71.77
7940;BME280;4015;48.888;9.226;2022-07-23T05:42:41;161433.06;;;24.60;71.30
7940;BME280;4015;48.888;9.226;2022-07-23T05:45:08;161448.50;;;24.66;69.91
7940;BME280;4015;48.888;9.226;2022-07-23T05:47:47;161501.28;;;24.87;67.17
7940;BME280;4015;48.888;9.226;2022-07-23T05:50:14;161500.00;;;24.87;69.76
7940;BME280;4015;48.888;9.226;2022-07-23T05:52:39;161536.06;;;25.01;67.87
7940;BME280;4015;48.888;9.226;2022-07-23T05:55:06;161530.91;;;24.99;67.42
7940;BME280;4015;48.888;9.226;2022-07-23T05:57:31;161538.69;;;25.02;68.20
7940;BME280;4015;48.888;9.226;2022-07-23T05:59:57;161514.19;;;24.92;68.46
7940;BME280;4015;48.888;9.226;2022-07-23T06:02:22;161488.41;;;24.82;66.82
7940;BME280;4015;48.888;9.226;2022-07-23T06:04:48;161404.72;;;24.49;68.52
7940;BME280;4015;48.888;9.226;2022-07-23T06:07:13;161348.06;;;24.27;67.78
7940;BME280;4015;48.888;9.226;2022-07-23T06:09:39;161291.41;;;24.04;68.42
7940;BME280;4015;48.888;9.226;2022-07-23T06:12:04;161266.91;;;23.94;68.63
7940;BME280;4015;48.888;9.226;2022-07-23T06:14:30;161246.34;;;23.86;67.67
7940;BME280;4015;48.888;9.226;2022-07-23T06:16:55;161232.16;;;23.81;66.66
7940;BME280;4015;48.888;9.226;2022-07-23T06:19:20;161237.34;;;23.83;67.29
7940;BME280;4015;48.888;9.226;2022-07-23T06:21:46;161251.47;;;23.88;68.69
7940;BME280;4015;48.888;9.226;2022-07-23T06:24:11;161288.81;;;24.03;68.04
7940;BME280;4015;48.888;9.226;2022-07-23T06:26:37;161277.22;;;23.99;67.79
7940;BME280;4015;48.888;9.226;2022-07-23T06:29:02;161275.94;;;23.98;66.65
7940;BME280;4015;48.888;9.226;2022-07-23T06:31:27;161313.25;;;24.13;66.78
7940;BME280;4015;48.888;9.226;2022-07-23T06:33:53;161430.50;;;24.59;64.84
7940;BME280;4015;48.888;9.226;2022-07-23T06:36:18;161528.34;;;24.98;64.24
7940;BME280;4015;48.888;9.226;2022-07-23T06:38:43;161595.38;;;25.24;63.69
7940;BME280;4015;48.888;9.226;2022-07-23T06:41:09;161601.84;;;25.27;63.47
7940;BME280;4015;48.888;9.226;2022-07-23T06:43:34;161661.06;;;25.50;62.54
7940;BME280;4015;48.888;9.226;2022-07-23T06:45:59;161762.91;;;25.91;61.50
7940;BME280;4015;48.888;9.226;2022-07-23T06:48:25;161774.47;;;25.95;61.73
7940;BME280;4015;48.888;9.226;2022-07-23T06:50:50;161760.34;;;25.90;62.61
7940;BME280;4015;48.888;9.226;2022-07-23T06:53:17;161641.72;;;25.43;62.73
7940;BME280;4015;48.888;9.226;2022-07-23T06:55:43;161541.25;;;25.03;64.18
7940;BME280;4015;48.888;9.226;2022-07-23T06:58:08;161453.66;;;24.68;65.06
7940;BME280;4015;48.888;9.226;2022-07-23T07:00:35;161345.44;;;24.26;66.86
7940;BME280;4015;48.888;9.226;2022-07-23T07:03:00;161250.19;;;23.88;67.55
7940;BME280;4015;48.888;9.226;2022-07-23T07:05:26;161189.72;;;23.64;69.06
7940;BME280;4015;48.888;9.226;2022-07-23T07:07:54;161093.19;;;23.26;70.78
7940;BME280;4015;48.888;9.226;2022-07-23T07:10:19;161032.69;;;23.02;71.46
7940;BME280;4015;48.888;9.226;2022-07-23T07:12:45;160987.59;;;22.84;71.12
7940;BME280;4015;48.888;9.226;2022-07-23T07:15:10;160934.88;;;22.63;71.78
7940;BME280;4015;48.888;9.226;2022-07-23T07:17:36;160961.88;;;22.74;73.47
7940;BME280;4015;48.888;9.226;2022-07-23T07:20:02;160960.59;;;22.73;75.67
7940;BME280;4015;48.888;9.226;2022-07-23T07:22:28;160904.00;;;22.51;76.22
7940;BME280;4015;48.888;9.226;2022-07-23T07:24:53;160883.41;;;22.43;76.67
7940;BME280;4015;48.888;9.226;2022-07-23T07:27:18;160884.69;;;22.43;78.64
7940;BME280;4015;48.888;9.226;2022-07-23T07:29:44;160857.69;;;22.32;79.58
7940;BME280;4015;48.888;9.226;2022-07-23T07:32:09;160874.41;;;22.39;80.21
7940;BME280;4015;48.888;9.226;2022-07-23T07:34:34;160884.69;;;22.43;81.22
7940;BME280;4015;48.888;9.226;2022-07-23T07:37:00;160857.69;;;22.32;81.23
7940;BME280;4015;48.888;9.226;2022-07-23T07:39:25;160816.53;;;22.16;81.67
7940;BME280;4015;48.888;9.226;2022-07-23T07:41:50;160842.28;;;22.26;82.30
7940;BME280;4015;48.888;9.226;2022-07-23T07:44:16;160840.97;;;22.26;81.85
7940;BME280;4015;48.888;9.226;2022-07-23T07:46:41;160897.56;;;22.48;83.14
7940;BME280;4015;48.888;9.226;2022-07-23T07:49:07;161000.53;;;22.89;82.46
7940;BME280;4015;48.888;9.226;2022-07-23T07:51:32;161067.41;;;23.15;80.71
7940;BME280;4015;48.888;9.226;2022-07-23T07:53:58;161382.84;;;24.40;76.44
7940;BME280;4015;48.888;9.226;2022-07-23T07:56:23;161634.03;;;25.40;70.25
7940;BME280;4015;48.888;9.226;2022-07-23T07:58:48;161552.84;;;25.08;70.71
7940;BME280;4015;48.888;9.226;2022-07-23T08:01:14;161357.03;;;24.30;71.49
7940;BME280;4015;48.888;9.226;2022-07-23T08:03:39;161323.56;;;24.17;72.60
7940;BME280;4015;48.888;9.226;2022-07-23T08:06:05;161337.75;;;24.22;74.02
7940;BME280;4015;48.888;9.226;2022-07-23T08:08:30;161299.09;;;24.07;73.86
7940;BME280;4015;48.888;9.226;2022-07-23T08:10:55;161305.56;;;24.10;73.83
7940;BME280;4015;48.888;9.226;2022-07-23T08:13:21;161333.88;;;24.21;74.16
7940;BME280;4015;48.888;9.226;2022-07-23T08:15:46;161349.34;;;24.27;72.32
7940;BME280;4015;48.888;9.226;2022-07-23T08:18:11;161436.91;;;24.62;73.19
7940;BME280;4015;48.888;9.226;2022-07-23T08:20:37;161427.94;;;24.58;72.04
7940;BME280;4015;48.888;9.226;2022-07-23T08:23:04;161425.31;;;24.57;71.44
7940;BME280;4015;48.888;9.226;2022-07-23T08:25:32;161454.94;;;24.69;71.47
7940;BME280;4015;48.888;9.226;2022-07-23T08:28:00;161399.59;;;24.47;71.99
7940;BME280;4015;48.888;9.226;2022-07-23T08:30:26;161451.09;;;24.67;71.65
7940;BME280;4015;48.888;9.226;2022-07-23T08:35:28;161585.03;;;25.20;70.33
7940;BME280;4015;48.888;9.226;2022-07-23T08:37:54;161694.53;;;25.64;69.77
7940;BME280;4015;48.888;9.226;2022-07-23T08:40:21;161859.53;;;26.29;66.86
7940;BME280;4015;48.888;9.226;2022-07-23T08:42:48;161908.56;;;26.48;66.07
7940;BME280;4015;48.888;9.226;2022-07-23T08:45:17;161997.44;;;26.83;65.58
7940;BME280;4015;48.888;9.226;2022-07-23T08:47:43;162089.03;;;27.20;63.78
7940;BME280;4015;48.888;9.226;2022-07-23T08:50:10;162180.59;;;27.56;61.53
7940;BME280;4015;48.888;9.226;2022-07-23T08:52:36;162185.72;;;27.58;60.59
7940;BME280;4015;48.888;9.226;2022-07-23T08:55:03;162460.56;;;28.66;58.81
7940;BME280;4015;48.888;9.226;2022-07-23T08:57:29;162825.88;;;30.11;54.45
7940;BME280;4015;48.888;9.226;2022-07-23T08:59:54;163119.09;;;31.26;51.50
7940;BME280;4015;48.888;9.226;2022-07-23T09:02:21;163345.19;;;32.15;51.04
7940;BME280;4015;48.888;9.226;2022-07-23T09:04:46;163633.44;;;33.29;48.29
7940;BME280;4015;48.888;9.226;2022-07-23T09:07:12;163883.06;;;34.27;47.40
7940;BME280;4015;48.888;9.226;2022-07-23T09:09:37;163919.25;;;34.42;44.78
7940;BME280;4015;48.888;9.226;2022-07-23T09:12:09;164149.53;;;35.32;44.60
7940;BME280;4015;48.888;9.226;2022-07-23T09:14:44;163867.56;;;34.21;45.59
7940;BME280;4015;48.888;9.226;2022-07-23T09:17:15;163316.75;;;32.04;48.02
7940;BME280;4015;48.888;9.226;2022-07-23T09:19:42;163197.88;;;31.57;48.84
7940;BME280;4015;48.888;9.226;2022-07-23T09:22:25;163156.53;;;31.41;50.73
7940;BME280;4015;48.888;9.226;2022-07-23T09:25:05;162898.19;;;30.39;51.96
7940;BME280;4015;48.888;9.226;2022-07-23T09:30:16;162785.84;;;29.95;52.61
7940;BME280;4015;48.888;9.226;2022-07-23T09:32:42;163157.81;;;31.41;50.67
7940;BME280;4015;48.888;9.226;2022-07-23T09:35:08;163877.88;;;34.25;45.63
7940;BME280;4015;48.888;9.226;2022-07-23T09:37:34;164228.50;;;35.63;42.39
7940;BME280;4015;48.888;9.226;2022-07-23T09:40:09;164466.69;;;36.57;40.69
7940;BME280;4015;48.888;9.226;2022-07-23T09:42:38;164726.97;;;37.60;39.13
7940;BME280;4015;48.888;9.226;2022-07-23T09:45:10;165002.84;;;38.68;36.83
7940;BME280;4015;48.888;9.226;2022-07-23T09:47:37;164956.22;;;38.50;37.44
7940;BME280;4015;48.888;9.226;2022-07-23T09:50:06;164739.88;;;37.65;39.53
7940;BME280;4015;48.888;9.226;2022-07-23T09:52:44;164790.47;;;37.85;38.16
7940;BME280;4015;48.888;9.226;2022-07-23T09:55:10;164868.09;;;38.15;37.99
7940;BME280;4015;48.888;9.226;2022-07-23T09:57:36;164941.97;;;38.44;38.39
7940;BME280;4015;48.888;9.226;2022-07-23T10:00:04;165120.75;;;39.15;37.07
7940;BME280;4015;48.888;9.226;2022-07-23T10:02:32;165255.59;;;39.68;37.50
7940;BME280;4015;48.888;9.226;2022-07-23T10:04:59;165166.13;;;39.32;36.86
7940;BME280;4015;48.888;9.226;2022-07-23T10:07:26;165176.50;;;39.36;36.58
7940;BME280;4015;48.888;9.226;2022-07-23T10:09:52;164920.00;;;38.36;38.50
7940;BME280;4015;48.888;9.226;2022-07-23T10:12:19;164971.78;;;38.56;37.55
7940;BME280;4015;48.888;9.226;2022-07-23T10:14:51;165026.19;;;38.77;38.52
7940;BME280;4015;48.888;9.226;2022-07-23T10:17:17;165072.81;;;38.96;38.42
7940;BME280;4015;48.888;9.226;2022-07-23T10:19:43;165071.53;;;38.95;37.95
7940;BME280;4015;48.888;9.226;2022-07-23T10:22:12;165240.03;;;39.61;36.43
7940;BME280;4015;48.888;9.226;2022-07-23T10:24:59;165272.41;;;39.74;35.75
7940;BME280;4015;48.888;9.226;2022-07-23T10:30:22;165163.56;;;39.31;36.99
7940;BME280;4015;48.888;9.226;2022-07-23T10:33:03;165193.34;;;39.43;37.09
7940;BME280;4015;48.888;9.226;2022-07-23T10:35:44;164944.56;;;38.45;38.35
7940;BME280;4015;48.888;9.226;2022-07-23T10:38:30;165052.13;;;38.88;37.19
7940;BME280;4015;48.888;9.226;2022-07-23T10:41:01;164818.91;;;37.96;37.83
7940;BME280;4015;48.888;9.226;2022-07-23T10:43:28;164596.16;;;37.08;38.17
7940;BME280;4015;48.888;9.226;2022-07-23T10:45:54;164664.84;;;37.35;37.71
7940;BME280;4015;48.888;9.226;2022-07-23T10:48:21;164585.81;;;37.04;39.10
7940;BME280;4015;48.888;9.226;2022-07-23T10:51:10;164579.31;;;37.02;39.83
7940;BME280;4015;48.888;9.226;2022-07-23T10:59:21;165566.66;;;40.90;36.36
7940;BME280;4015;48.888;9.226;2022-07-23T11:01:47;165536.81;;;40.78;35.33
7940;BME280;4015;48.888;9.226;2022-07-23T11:04:12;165374.78;;;40.14;35.99
7940;BME280;4015;48.888;9.226;2022-07-23T11:09:41;165652.19;;;41.23;34.66
7940;BME280;4015;48.888;9.226;2022-07-23T11:15:11;164884.94;;;38.22;34.96
7940;BME280;4015;48.888;9.226;2022-07-23T11:27:53;164862.94;;;38.13;35.41
7940;BME280;4015;48.888;9.226;2022-07-23T11:35:40;164940.69;;;38.44;36.31
7940;BME280;4015;48.888;9.226;2022-07-23T11:38:13;165300.94;;;39.85;33.99
7940;BME280;4015;48.888;9.226;2022-07-23T11:40:42;165220.53;;;39.54;34.84
7940;BME280;4015;48.888;9.226;2022-07-23T11:43:10;165055.97;;;38.89;35.38
7940;BME280;4015;48.888;9.226;2022-07-23T11:45:39;164702.38;;;37.50;36.06
7940;BME280;4015;48.888;9.226;2022-07-23T11:48:08;164216.91;;;35.59;38.81
7940;BME280;4015;48.888;9.226;2022-07-23T11:50:35;164236.28;;;35.66;39.13
7940;BME280;4015;48.888;9.226;2022-07-23T11:53:01;164583.25;;;37.03;38.16
7940;BME280;4015;48.888;9.226;2022-07-23T11:55:26;164777.47;;;37.79;37.24
7940;BME280;4015;48.888;9.226;2022-07-23T11:57:54;165006.72;;;38.70;35.62
7940;BME280;4015;48.888;9.226;2022-07-23T12:00:25;165166.13;;;39.32;36.04
7940;BME280;4015;48.888;9.226;2022-07-23T12:02:54;164847.41;;;38.07;35.52
7940;BME280;4015;48.888;9.226;2022-07-23T12:05:25;164585.81;;;37.04;37.75
7940;BME280;4015;48.888;9.226;2022-07-23T12:07:53;164853.91;;;38.10;39.15
7940;BME280;4015;48.888;9.226;2022-07-23T12:10:35;164992.47;;;38.64;36.93
7940;BME280;4015;48.888;9.226;2022-07-23T12:13:07;165262.03;;;39.70;34.97
7940;BME280;4015;48.888;9.226;2022-07-23T12:15:41;165527.75;;;40.75;34.13
7940;BME280;4015;48.888;9.226;2022-07-23T12:18:11;165341.06;;;40.01;34.26
7940;BME280;4015;48.888;9.226;2022-07-23T12:20:40;165058.56;;;38.90;35.64
7940;BME280;4015;48.888;9.226;2022-07-23T12:23:08;164963.97;;;38.53;36.59
7940;BME280;4015;48.888;9.226;2022-07-23T12:25:39;165189.47;;;39.42;35.06
7940;BME280;4015;48.888;9.226;2022-07-23T12:32:59;165295.72;;;39.83;35.08
7940;BME280;4015;48.888;9.226;2022-07-23T12:35:32;164660.91;;;37.34;36.71
7940;BME280;4015;48.888;9.226;2022-07-23T12:38:02;164934.25;;;38.41;37.52
7940;BME280;4015;48.888;9.226;2022-07-23T12:40:36;164377.38;;;36.22;41.10
7940;BME280;4015;48.888;9.226;2022-07-23T12:43:11;164100.41;;;35.13;41.27
7940;BME280;4015;48.888;9.226;2022-07-23T12:45:46;164167.69;;;35.39;41.10
7940;BME280;4015;48.888;9.226;2022-07-23T12:53:18;163960.72;;;34.58;42.32
7940;BME280;4015;48.888;9.226;2022-07-23T12:55:45;163792.56;;;33.92;43.06
7940;BME280;4015;48.888;9.226;2022-07-23T12:58:16;163593.41;;;33.13;44.25
7940;BME280;4015;48.888;9.226;2022-07-23T13:03:27;163700.69;;;33.55;43.15
7940;BME280;4015;48.888;9.226;2022-07-23T13:05:53;163558.47;;;32.99;44.55
7940;BME280;4015;48.888;9.226;2022-07-23T13:08:19;163585.63;;;33.10;43.76
7940;BME280;4015;48.888;9.226;2022-07-23T13:10:44;163717.50;;;33.62;44.56
7940;BME280;4015;48.888;9.226;2022-07-23T13:13:14;163917.97;;;34.41;42.84
7940;BME280;4015;48.888;9.226;2022-07-23T13:15:39;164097.81;;;35.12;40.82
7940;BME280;4015;48.888;9.226;2022-07-23T13:18:04;163991.75;;;34.70;41.69
7940;BME280;4015;48.888;9.226;2022-07-23T13:20:31;163990.41;;;34.70;41.79
7940;BME280;4015;48.888;9.226;2022-07-23T13:22:57;164066.78;;;35.00;41.73
7940;BME280;4015;48.888;9.226;2022-07-23T13:25:23;164420.09;;;36.39;39.16
7940;BME280;4015;48.888;9.226;2022-07-23T13:27:48;164571.59;;;36.98;39.70
7940;BME280;4015;48.888;9.226;2022-07-23T13:30:14;164431.75;;;36.43;39.93
7940;BME280;4015;48.888;9.226;2022-07-23T13:32:40;164233.72;;;35.65;40.11
7940;BME280;4015;48.888;9.226;2022-07-23T13:35:06;164288.03;;;35.87;41.15
7940;BME280;4015;48.888;9.226;2022-07-23T13:37:31;164277.66;;;35.83;40.78
7940;BME280;4015;48.888;9.226;2022-07-23T13:39:56;164457.66;;;36.54;38.74
7940;BME280;4015;48.888;9.226;2022-07-23T13:42:22;164518.50;;;36.78;38.17
7940;BME280;4015;48.888;9.226;2022-07-23T13:44:47;164629.84;;;37.21;37.80
7940;BME280;4015;48.888;9.226;2022-07-23T13:47:13;164515.84;;;36.77;37.30
7940;BME280;4015;48.888;9.226;2022-07-23T13:49:38;164585.81;;;37.04;38.21
7940;BME280;4015;48.888;9.226;2022-07-23T13:52:04;164377.38;;;36.22;37.52
7940;BME280;4015;48.888;9.226;2022-07-23T13:54:29;164433.03;;;36.44;37.99
7940;BME280;4015;48.888;9.226;2022-07-23T13:56:55;164598.78;;;37.09;37.07